Time;durP1;ratioP1;P1;durP2;ratioP2;P2;SDS_P1;SDS_P2;PMS_P1;PMS_P2;Temp;Humidity;BMP_temperature;BMP_pressure;BME280_temperature;BME280_humidity;BME280_pressure;Samples;Min_cycle;Max_cycle;Signal;HPM_P1;HPM_P2
2024/01/01 00:00:54;;;;;;;10.38;5.70;;;7.90;99.90;;;;;;4975322;28;20027;-76
2024/01/01 00:03:19;;;;;;;13.38;6.85;;;7.90;99.90;;;;;;4976232;28;20035;-76
2024/01/01 00:05:45;;;;;;;13.35;6.40;;;8.00;99.90;;;;;;4958421;28;20551;-76
2024/01/01 00:08:11;;;;;;;9.98;4.60;;;8.00;99.90;;;;;;4958813;28;20120;-75
2024/01/01 00:10:36;;;;;;;8.00;4.22;;;8.00;99.90;;;;;;4975635;28;20101;-75
2024/01/01 00:13:02;;;;;;;7.90;4.38;;;8.00;99.90;;;;;;4958981;28;20046;-75
2024/01/01 00:15:28;;;;;;;8.32;3.33;;;8.00;99.90;;;;;;4974573;28;20035;-76
2024/01/01 00:17:53;;;;;;;6.00;3.10;;;8.00;99.90;;;;;;4974381;28;20030;-76
2024/01/01 00:20:19;;;;;;;4.47;2.75;;;8.00;99.90;;;;;;4958612;28;20039;-76
2024/01/01 00:22:47;;;;;;;7.28;3.05;;;8.00;99.90;;;;;;4974215;28;20459;-75
2024/01/01 00:25:12;;;;;;;9.57;3.05;;;8.00;99.90;;;;;;4974632;28;20034;-76
2024/01/01 00:27:38;;;;;;;6.28;3.00;;;8.00;99.90;;;;;;4957993;28;20031;-75
2024/01/01 00:30:04;;;;;;;8.20;2.80;;;8.10;99.90;;;;;;4975999;28;20045;-75
2024/01/01 00:32:29;;;;;;;5.32;2.95;;;8.00;99.90;;;;;;4957982;28;20109;-76
2024/01/01 00:34:55;;;;;;;5.65;2.67;;;8.00;99.90;;;;;;4958338;28;20122;-75
2024/01/01 00:37:21;;;;;;;7.70;1.90;;;8.00;99.90;;;;;;4958192;28;20047;-76
2024/01/01 00:39:46;;;;;;;4.55;2.30;;;8.00;99.90;;;;;;4957831;28;20460;-75
2024/01/01 00:42:12;;;;;;;4.50;1.73;;;8.10;99.90;;;;;;4958288;28;20031;-76
2024/01/01 00:44:38;;;;;;;4.75;1.50;;;8.10;99.90;;;;;;4957768;28;20098;-76
2024/01/01 00:47:03;;;;;;;4.80;1.83;;;8.10;99.90;;;;;;4974253;28;20027;-75
2024/01/01 00:49:29;;;;;;;4.93;1.85;;;8.10;99.90;;;;;;4957710;28;20491;-76
2024/01/01 00:51:55;;;;;;;4.35;1.92;;;8.10;99.90;;;;;;4958085;28;20486;-76
2024/01/01 00:54:20;;;;;;;6.85;2.35;;;8.10;99.90;;;;;;4975276;28;20027;-76
2024/01/01 00:56:46;;;;;;;5.68;2.13;;;8.10;99.90;;;;;;4973539;28;20468;-76
2024/01/01 00:59:12;;;;;;;5.70;2.35;;;8.00;99.90;;;;;;4973958;28;20041;-76
2024/01/01 01:01:38;;;;;;;6.10;2.40;;;8.00;99.90;;;;;;4957350;28;20436;-76
2024/01/01 01:04:03;;;;;;;7.10;2.90;;;8.00;99.90;;;;;;4958148;28;20030;-76
2024/01/01 01:06:29;;;;;;;5.93;2.47;;;8.00;99.90;;;;;;4957472;28;20027;-76
2024/01/01 01:08:55;;;;;;;5.43;2.15;;;8.00;99.90;;;;;;4957473;28;20388;-76
2024/01/01 01:11:20;;;;;;;5.25;2.33;;;8.00;99.90;;;;;;4975040;28;20023;-76
2024/01/01 01:13:46;;;;;;;4.45;2.10;;;8.00;99.90;;;;;;4957368;28;20038;-76
2024/01/01 01:16:12;;;;;;;5.25;2.33;;;7.90;99.90;;;;;;4974967;28;20126;-75
2024/01/01 01:18:37;;;;;;;5.97;2.47;;;7.90;99.90;;;;;;4974359;28;20446;-76
2024/01/01 01:21:03;;;;;;;5.47;2.28;;;7.90;99.90;;;;;;4975214;28;20042;-76
2024/01/01 01:23:30;;;;;;;3.78;2.03;;;7.90;99.90;;;;;;4957147;28;20162;-92
2024/01/01 01:25:55;;;;;;;4.93;2.00;;;7.90;99.90;;;;;;4956998;28;20031;-76
2024/01/01 01:28:22;;;;;;;5.18;2.70;;;7.90;99.90;;;;;;4973226;28;20034;-76
2024/01/01 01:30:48;;;;;;;7.47;2.63;;;7.90;99.90;;;;;;4956919;28;20117;-76
2024/01/01 01:33:13;;;;;;;5.55;2.70;;;7.90;99.90;;;;;;4957274;28;20035;-76
2024/01/01 01:35:39;;;;;;;6.97;2.95;;;7.90;99.90;;;;;;4956928;28;20027;-76
2024/01/01 01:38:04;;;;;;;5.85;3.05;;;7.90;99.90;;;;;;4974300;28;20514;-76
2024/01/01 01:40:30;;;;;;;7.68;3.58;;;7.90;99.90;;;;;;4956676;28;20028;-78
2024/01/01 01:42:56;;;;;;;9.57;3.75;;;7.80;99.90;;;;;;4974555;28;20035;-75
2024/01/01 01:45:22;;;;;;;7.07;3.50;;;7.80;99.90;;;;;;4957151;28;20082;-75
2024/01/01 01:47:48;;;;;;;7.05;3.15;;;7.80;99.90;;;;;;4973965;28;20019;-76
2024/01/01 01:50:16;;;;;;;7.18;3.25;;;7.80;99.90;;;;;;4957226;28;20042;-76
2024/01/01 01:52:44;;;;;;;4.82;2.95;;;7.80;99.90;;;;;;4956642;28;20033;-76
2024/01/01 01:55:11;;;;;;;7.63;3.20;;;7.80;99.90;;;;;;4974593;28;20026;-76
2024/01/01 01:57:38;;;;;;;5.78;2.38;;;7.80;99.90;;;;;;4956483;28;20468;-76
2024/01/01 02:00:05;;;;;;;4.40;2.30;;;7.80;99.90;;;;;;4956912;28;20144;-75
2024/01/01 02:02:34;;;;;;;8.60;3.22;;;7.90;99.90;;;;;;4974052;28;20035;-94
2024/01/01 02:04:59;;;;;;;5.35;2.75;;;7.80;99.90;;;;;;4956911;28;20038;-76
2024/01/01 02:07:25;;;;;;;4.25;2.25;;;7.80;99.90;;;;;;4974209;28;20031;-76
2024/01/01 02:09:51;;;;;;;4.63;2.10;;;7.90;99.90;;;;;;4973492;28;20516;-76
2024/01/01 02:12:16;;;;;;;6.00;2.53;;;7.90;99.90;;;;;;4956698;28;20412;-76
2024/01/01 02:14:42;;;;;;;6.03;2.10;;;7.90;99.90;;;;;;4973405;28;20031;-76
2024/01/01 02:17:07;;;;;;;4.57;2.10;;;7.90;99.90;;;;;;4973904;28;20027;-76
2024/01/01 02:19:33;;;;;;;3.47;1.77;;;7.80;99.90;;;;;;4955950;28;20470;-76
2024/01/01 02:21:59;;;;;;;5.47;2.17;;;7.90;99.90;;;;;;4956560;28;20034;-76
2024/01/01 02:24:24;;;;;;;5.43;1.90;;;7.80;99.90;;;;;;4956548;28;20027;-76
2024/01/01 02:26:50;;;;;;;3.55;1.67;;;7.80;99.90;;;;;;4955909;28;20174;-76
2024/01/01 02:29:16;;;;;;;10.23;1.80;;;7.80;99.90;;;;;;4956383;28;20129;-75
2024/01/01 02:31:43;;;;;;;3.08;1.70;;;7.70;99.90;;;;;;4973319;28;20039;-76
2024/01/01 02:34:09;;;;;;;5.45;1.98;;;7.80;99.90;;;;;;4972210;28;20054;-76
2024/01/01 02:36:36;;;;;;;3.25;1.50;;;7.70;99.90;;;;;;4973159;28;20081;-76
2024/01/01 02:39:06;;;;;;;4.90;1.70;;;7.70;99.90;;;;;;4959236;28;20466;-76
2024/01/01 02:41:34;;;;;;;5.18;1.50;;;7.70;99.90;;;;;;4977568;28;20031;-76
2024/01/01 02:43:59;;;;;;;4.70;1.38;;;7.70;99.90;;;;;;4977632;28;20027;-76
2024/01/01 02:46:25;;;;;;;3.00;1.50;;;7.70;99.90;;;;;;4960084;28;20445;-75
2024/01/01 02:48:51;;;;;;;4.95;1.67;;;7.70;99.90;;;;;;4959863;28;20030;-75
2024/01/01 02:51:16;;;;;;;5.50;1.98;;;7.70;99.90;;;;;;4976210;28;20027;-76
2024/01/01 02:53:42;;;;;;;4.93;1.90;;;7.70;99.90;;;;;;4976900;28;20503;-76
2024/01/01 02:56:20;;;;;;;6.00;2.38;;;7.70;99.90;;;;;;4959692;28;20029;-76
2024/01/01 02:58:46;;;;;;;6.32;3.30;;;7.80;99.90;;;;;;4959245;28;20169;-76
2024/01/01 03:01:12;;;;;;;7.93;3.15;;;7.70;99.90;;;;;;4959850;28;20128;-75
2024/01/01 03:03:38;;;;;;;10.00;3.28;;;7.80;99.90;;;;;;4976762;28;20476;-76
2024/01/01 03:06:06;;;;;;;9.43;4.10;;;7.70;99.90;;;;;;4977216;28;20515;-76
2024/01/01 03:08:32;;;;;;;10.05;4.03;;;7.70;99.90;;;;;;4959811;28;20126;-76
2024/01/01 03:10:57;;;;;;;9.77;3.83;;;7.70;99.90;;;;;;4959258;28;20197;-76
2024/01/01 03:13:23;;;;;;;10.50;3.85;;;7.70;99.90;;;;;;4977281;28;20519;-76
2024/01/01 03:15:48;;;;;;;10.93;4.90;;;7.70;99.90;;;;;;4976754;28;20030;-76
2024/01/01 03:18:17;;;;;;;11.75;4.45;;;7.70;99.90;;;;;;4977157;28;20034;-76
2024/01/01 03:20:43;;;;;;;12.40;5.68;;;7.70;99.90;;;;;;4976675;28;20118;-75
2024/01/01 03:23:08;;;;;;;13.35;5.30;;;7.70;99.90;;;;;;4959724;28;20126;-76
2024/01/01 03:25:34;;;;;;;19.95;6.03;;;7.70;99.90;;;;;;4959418;28;20030;-76
2024/01/01 03:27:59;;;;;;;13.50;6.63;;;7.70;99.90;;;;;;4958702;28;20031;-76
2024/01/01 03:30:25;;;;;;;9.57;5.70;;;7.70;99.90;;;;;;4975588;28;20034;-76
2024/01/01 03:32:51;;;;;;;12.55;5.32;;;7.70;99.90;;;;;;4976452;28;20101;-76
2024/01/01 03:35:17;;;;;;;8.98;4.63;;;7.70;99.90;;;;;;4959125;28;20038;-76
2024/01/01 03:37:42;;;;;;;11.10;4.55;;;7.60;99.90;;;;;;4975779;28;20058;-76
2024/01/01 03:40:09;;;;;;;10.00;4.43;;;7.60;99.90;;;;;;4959123;28;20026;-76
2024/01/01 03:42:34;;;;;;;11.77;4.95;;;7.60;99.90;;;;;;4959322;28;20035;-76
2024/01/01 03:45:00;;;;;;;12.98;5.10;;;7.60;99.90;;;;;;4958758;28;20031;-76
2024/01/01 03:47:26;;;;;;;10.48;4.72;;;7.60;99.90;;;;;;4959075;28;20031;-76
2024/01/01 03:49:51;;;;;;;12.00;4.40;;;7.60;99.90;;;;;;4975685;28;20034;-76
2024/01/01 03:52:17;;;;;;;8.85;4.10;;;7.60;99.90;;;;;;4958810;28;20128;-76
2024/01/01 03:54:43;;;;;;;7.90;3.72;;;7.60;99.90;;;;;;4958568;28;20030;-76
2024/01/01 03:57:08;;;;;;;13.00;3.28;;;7.50;99.90;;;;;;4975017;28;20026;-76
2024/01/01 03:59:35;;;;;;;7.32;2.97;;;7.60;99.90;;;;;;4975791;28;20071;-75
2024/01/01 04:02:00;;;;;;;8.90;3.28;;;7.60;99.90;;;;;;4958379;28;20035;-76
2024/01/01 04:04:26;;;;;;;6.07;2.50;;;7.60;99.90;;;;;;4976072;28;20037;-75
2024/01/01 04:06:52;;;;;;;6.53;2.67;;;7.60;99.90;;;;;;4958329;28;20042;-76
2024/01/01 04:09:18;;;;;;;7.28;2.30;;;7.60;99.90;;;;;;4976057;28;20102;-76
2024/01/01 04:11:44;;;;;;;3.80;1.95;;;7.60;99.90;;;;;;4958387;28;20377;-76
2024/01/01 04:14:09;;;;;;;5.40;1.52;;;7.60;99.90;;;;;;4975873;28;20027;-76
2024/01/01 04:16:37;;;;;;;3.85;1.10;;;7.60;99.90;;;;;;4975924;28;20081;-76
2024/01/01 04:19:03;;;;;;;4.05;1.67;;;7.70;99.90;;;;;;4958093;28;20118;-76
2024/01/01 04:21:29;;;;;;;4.90;1.35;;;7.70;99.90;;;;;;4975860;28;20030;-76
2024/01/01 04:23:57;;;;;;;3.92;1.10;;;7.70;99.90;;;;;;4958029;28;20093;-76
2024/01/01 04:26:23;;;;;;;6.18;1.08;;;7.70;99.90;;;;;;4958584;28;20028;-75
2024/01/01 04:28:49;;;;;;;4.63;0.75;;;7.70;99.90;;;;;;4975246;28;20078;-76
2024/01/01 04:31:15;;;;;;;5.25;1.15;;;7.70;99.90;;;;;;4975636;28;20436;-76
2024/01/01 04:33:40;;;;;;;4.78;0.98;;;7.70;99.90;;;;;;4975230;28;20033;-84
2024/01/01 04:36:06;;;;;;;6.93;0.85;;;7.70;99.90;;;;;;4958180;28;20531;-76
2024/01/01 04:38:31;;;;;;;5.80;0.68;;;7.80;99.90;;;;;;4975147;28;20069;-76
2024/01/01 04:40:57;;;;;;;3.25;0.70;;;7.70;99.90;;;;;;4974886;28;20499;-76
2024/01/01 04:43:24;;;;;;;3.30;0.60;;;7.80;99.90;;;;;;4975462;28;20027;-76
2024/01/01 04:45:49;;;;;;;4.63;0.57;;;7.80;99.90;;;;;;4957438;28;20038;-75
2024/01/01 04:48:15;;;;;;;3.22;0.93;;;7.80;99.90;;;;;;4957955;28;20030;-76
2024/01/01 04:50:41;;;;;;;4.53;0.60;;;7.80;99.90;;;;;;4975128;28;20033;-93
2024/01/01 04:53:06;;;;;;;2.22;0.80;;;7.80;99.90;;;;;;4974405;28;20023;-76
2024/01/01 04:55:32;;;;;;;7.88;0.80;;;7.80;99.90;;;;;;4957624;28;20364;-76
2024/01/01 04:57:58;;;;;;;3.38;0.82;;;7.80;99.90;;;;;;4957196;28;20034;-76
2024/01/01 05:00:23;;;;;;;4.65;0.75;;;7.80;99.90;;;;;;4974591;28;20547;-76
2024/01/01 05:02:49;;;;;;;3.63;0.60;;;7.80;99.90;;;;;;4957377;28;20030;-76
2024/01/01 05:05:15;;;;;;;3.67;0.77;;;7.80;99.90;;;;;;4973825;28;20026;-76
2024/01/01 05:07:42;;;;;;;4.55;0.68;;;7.80;99.90;;;;;;4957608;28;20034;-76
2024/01/01 05:10:09;;;;;;;2.80;0.43;;;7.80;99.90;;;;;;4957646;28;20027;-75
2024/01/01 05:12:35;;;;;;;3.90;0.55;;;7.80;99.90;;;;;;4973775;28;20114;-77
2024/01/01 05:15:00;;;;;;;6.32;0.60;;;7.80;99.90;;;;;;4957062;28;20118;-76
2024/01/01 05:17:26;;;;;;;1.50;0.60;;;7.90;99.90;;;;;;4973536;28;20427;-75
2024/01/01 05:19:51;;;;;;;2.47;0.60;;;7.80;99.90;;;;;;4974263;28;20061;-75
2024/01/01 05:22:18;;;;;;;6.13;0.85;;;7.90;99.90;;;;;;4957691;28;20484;-75
2024/01/01 05:24:43;;;;;;;5.60;0.70;;;7.80;99.90;;;;;;4974267;28;20146;-83
2024/01/01 05:27:09;;;;;;;1.65;0.60;;;7.80;99.90;;;;;;4974664;28;20066;-75
2024/01/01 05:29:35;;;;;;;2.40;0.60;;;7.90;99.90;;;;;;4974201;28;20101;-75
2024/01/01 05:32:01;;;;;;;2.47;0.63;;;7.80;99.90;;;;;;4974286;28;20071;-75
2024/01/01 05:34:27;;;;;;;5.55;0.95;;;7.80;99.90;;;;;;4974547;28;20127;-75
2024/01/01 05:36:52;;;;;;;6.80;0.90;;;7.90;99.90;;;;;;4956418;28;20090;-76
2024/01/01 05:39:18;;;;;;;2.22;0.80;;;7.90;99.90;;;;;;4974092;28;20066;-75
2024/01/01 05:41:44;;;;;;;1.80;0.85;;;7.90;99.90;;;;;;4972833;28;20031;-91
2024/01/01 05:44:09;;;;;;;6.50;1.27;;;7.90;99.90;;;;;;4956971;28;20496;-76
2024/01/01 05:46:35;;;;;;;7.00;0.88;;;7.90;99.90;;;;;;4956747;28;20035;-75
2024/01/01 05:49:01;;;;;;;5.32;0.70;;;7.90;99.90;;;;;;4956586;28;20129;-75
2024/01/01 05:51:26;;;;;;;2.58;0.88;;;7.90;99.90;;;;;;4972996;28;20468;-75
2024/01/01 05:53:52;;;;;;;6.03;1.08;;;7.90;99.90;;;;;;4973796;28;20058;-75
2024/01/01 05:56:17;;;;;;;5.65;0.80;;;7.90;99.90;;;;;;4974373;28;20054;-75
2024/01/01 05:58:43;;;;;;;5.15;0.77;;;7.90;99.90;;;;;;4972708;28;20122;-75
2024/01/01 06:01:09;;;;;;;3.38;0.68;;;7.90;99.90;;;;;;4973751;28;20039;-76
2024/01/01 06:03:34;;;;;;;4.93;0.60;;;7.90;99.90;;;;;;4956764;28;20026;-75
2024/01/01 06:06:00;;;;;;;4.82;0.68;;;7.90;99.90;;;;;;4972303;28;20027;-75
2024/01/01 06:08:25;;;;;;;5.63;0.73;;;7.80;99.90;;;;;;4974357;28;20038;-75
2024/01/01 06:10:51;;;;;;;3.53;0.80;;;7.80;99.90;;;;;;4973548;28;20582;-76
2024/01/01 06:13:18;;;;;;;1.75;0.52;;;7.80;99.90;;;;;;4971698;28;20388;-75
2024/01/01 06:15:43;;;;;;;2.40;0.60;;;7.80;99.90;;;;;;4956744;28;20408;-75
2024/01/01 06:18:10;;;;;;;1.80;0.43;;;7.80;99.90;;;;;;4956274;28;20030;-75
2024/01/01 06:20:36;;;;;;;2.70;0.80;;;7.70;99.90;;;;;;4973814;28;20027;-76
2024/01/01 06:23:02;;;;;;;2.97;0.60;;;7.70;99.90;;;;;;4955971;28;20035;-76
2024/01/01 06:25:28;;;;;;;4.20;0.80;;;7.70;99.90;;;;;;4973903;28;20456;-76
2024/01/01 06:27:54;;;;;;;4.55;0.77;;;7.70;99.90;;;;;;4973475;28;20034;-76
2024/01/01 06:30:20;;;;;;;4.35;0.90;;;7.70;99.90;;;;;;4956471;28;20045;-76
2024/01/01 06:32:45;;;;;;;3.63;0.60;;;7.70;99.90;;;;;;4973879;28;20030;-75
2024/01/01 06:35:11;;;;;;;2.45;0.60;;;7.70;99.90;;;;;;4972156;28;20033;-75
2024/01/01 06:37:37;;;;;;;4.00;0.60;;;7.70;99.90;;;;;;4956015;28;20397;-75
2024/01/01 06:40:03;;;;;;;2.65;0.70;;;7.70;99.90;;;;;;4973273;28;20078;-76
2024/01/01 06:42:29;;;;;;;2.97;0.63;;;7.70;99.90;;;;;;4973771;28;20077;-75
2024/01/01 06:44:59;;;;;;;2.15;0.45;;;7.70;99.90;;;;;;4972149;28;20468;-76
2024/01/01 06:47:25;;;;;;;5.80;1.50;;;7.60;99.90;;;;;;4956524;28;20118;-76
2024/01/01 06:49:51;;;;;;;1.63;0.43;;;7.60;99.90;;;;;;4955841;28;20118;-76
2024/01/01 06:52:16;;;;;;;4.10;0.88;;;7.60;99.90;;;;;;4956496;28;20037;-75
2024/01/01 06:54:42;;;;;;;6.28;0.80;;;7.60;99.90;;;;;;4956378;28;20077;-75
2024/01/01 06:57:07;;;;;;;2.08;0.70;;;7.60;99.90;;;;;;4973164;28;20354;-75
2024/01/01 06:59:33;;;;;;;9.32;1.67;;;7.60;99.90;;;;;;4956152;28;20499;-75
2024/01/01 07:01:59;;;;;;;6.18;0.88;;;7.60;99.90;;;;;;4955802;28;20043;-75
2024/01/01 07:04:25;;;;;;;5.93;0.70;;;7.60;99.90;;;;;;4956329;28;20030;-75
2024/01/01 07:06:51;;;;;;;5.13;0.80;;;7.60;99.90;;;;;;4955963;28;20093;-76
2024/01/01 07:09:17;;;;;;;4.70;0.85;;;7.50;99.90;;;;;;4956284;28;20039;-75
2024/01/01 07:11:43;;;;;;;2.75;0.60;;;7.60;99.90;;;;;;4956176;28;20397;-75
2024/01/01 07:14:09;;;;;;;1.92;0.60;;;7.60;99.90;;;;;;4955778;28;20511;-75
2024/01/01 07:16:35;;;;;;;1.75;0.60;;;7.50;99.90;;;;;;4956111;28;20117;-75
2024/01/01 07:19:00;;;;;;;5.82;1.02;;;7.50;99.90;;;;;;4972943;28;20460;-76
2024/01/01 07:21:26;;;;;;;4.68;0.65;;;7.40;99.90;;;;;;4973369;28;20372;-75
2024/01/01 07:23:52;;;;;;;3.83;0.88;;;7.40;99.90;;;;;;4973661;28;20380;-75
2024/01/01 07:26:17;;;;;;;6.47;0.80;;;7.40;99.90;;;;;;4959293;28;20027;-75
2024/01/01 07:28:43;;;;;;;4.75;0.90;;;7.40;99.90;;;;;;4976597;28;20034;-75
2024/01/01 07:31:10;;;;;;;6.35;0.82;;;7.40;99.90;;;;;;4975950;28;20473;-75
2024/01/01 07:33:36;;;;;;;4.00;0.73;;;7.40;99.90;;;;;;4976786;28;20030;-75
2024/01/01 07:36:01;;;;;;;6.20;0.80;;;7.40;99.90;;;;;;4976219;28;20035;-76
2024/01/01 07:38:27;;;;;;;4.68;0.68;;;7.40;99.90;;;;;;4959273;28;20129;-75
2024/01/01 07:40:53;;;;;;;4.18;0.60;;;7.40;99.90;;;;;;4974809;28;20127;-76
2024/01/01 07:43:19;;;;;;;4.43;0.75;;;7.40;99.90;;;;;;4976324;28;20503;-76
2024/01/01 07:45:44;;;;;;;3.40;0.90;;;7.40;99.90;;;;;;4959257;28;20034;-75
2024/01/01 07:48:10;;;;;;;4.32;0.60;;;7.40;99.90;;;;;;4958666;28;20031;-75
2024/01/01 07:50:36;;;;;;;5.40;1.05;;;7.40;99.90;;;;;;4974929;28;20023;-76
2024/01/01 07:53:01;;;;;;;3.35;0.60;;;7.40;99.90;;;;;;4975764;28;20101;-75
2024/01/01 07:55:27;;;;;;;2.55;0.50;;;7.40;99.90;;;;;;4959278;28;20030;-75
2024/01/01 07:57:53;;;;;;;4.13;0.57;;;7.40;99.90;;;;;;4958565;28;20105;-77
2024/01/01 08:00:19;;;;;;;2.03;0.60;;;7.40;99.90;;;;;;4976339;28;20041;-76
2024/01/01 08:02:45;;;;;;;3.92;0.60;;;7.40;99.90;;;;;;4974902;28;20460;-75
2024/01/01 08:05:10;;;;;;;3.22;0.63;;;7.40;99.90;;;;;;4975733;28;20043;-76
2024/01/01 08:07:36;;;;;;;4.82;0.60;;;7.40;99.90;;;;;;4958788;28;20027;-76
2024/01/01 08:10:02;;;;;;;6.43;0.82;;;7.40;99.90;;;;;;4975664;28;20046;-75
2024/01/01 08:12:27;;;;;;;4.65;0.63;;;7.40;99.90;;;;;;4974844;28;20030;-75
2024/01/01 08:14:53;;;;;;;5.95;0.88;;;7.40;99.90;;;;;;4974270;28;20023;-93
2024/01/01 08:17:19;;;;;;;4.07;0.47;;;7.40;99.90;;;;;;4958864;28;20062;-75
2024/01/01 08:19:44;;;;;;;4.00;0.80;;;7.40;99.90;;;;;;4958672;28;20026;-76
2024/01/01 08:22:10;;;;;;;3.20;0.80;;;7.50;99.90;;;;;;4974279;28;20522;-75
2024/01/01 08:24:35;;;;;;;2.78;0.60;;;7.50;99.90;;;;;;4975873;28;20517;-76
2024/01/01 08:27:01;;;;;;;1.48;0.40;;;7.50;99.90;;;;;;4975654;28;20030;-76
2024/01/01 08:29:27;;;;;;;10.55;0.77;;;7.60;99.90;;;;;;4958373;28;20034;-75
2024/01/01 08:31:52;;;;;;;7.57;1.17;;;7.60;99.90;;;;;;4958511;28;20031;-76
2024/01/01 08:34:18;;;;;;;4.07;1.50;;;7.70;99.90;;;;;;4957968;28;20465;-76
2024/01/01 08:36:43;;;;;;;5.82;0.85;;;7.70;99.90;;;;;;4974475;28;20050;-76
2024/01/01 08:39:09;;;;;;;3.40;0.65;;;7.80;99.90;;;;;;4973956;28;20616;-76
2024/01/01 08:41:43;;;;;;;3.03;0.63;;;7.70;99.90;;;;;;4958215;28;20068;-76
2024/01/01 08:44:09;;;;;;;4.80;1.13;;;7.70;99.90;;;;;;4975072;28;20031;-76
2024/01/01 08:46:35;;;;;;;1.77;0.55;;;7.80;99.90;;;;;;4975481;28;20035;-75
2024/01/01 08:49:01;;;;;;;2.55;0.40;;;7.80;99.90;;;;;;4973817;28;20130;-76
2024/01/01 08:51:27;;;;;;;6.28;0.77;;;7.80;99.90;;;;;;4957945;28;20114;-76
2024/01/01 08:53:52;;;;;;;3.58;0.88;;;7.80;99.90;;;;;;4957701;28;20041;-75
2024/01/01 08:56:18;;;;;;;3.92;0.90;;;7.80;99.90;;;;;;4974605;28;20031;-76
2024/01/01 08:58:43;;;;;;;4.57;0.80;;;7.80;99.90;;;;;;4974015;28;20034;-76
2024/01/01 09:01:09;;;;;;;5.57;0.77;;;7.80;99.90;;;;;;4957292;28;20069;-75
2024/01/01 09:03:37;;;;;;;1.15;0.40;;;7.80;99.90;;;;;;4957374;28;20081;-75
2024/01/01 09:06:03;;;;;;;4.53;0.70;;;7.80;99.90;;;;;;4957282;28;20041;-76
2024/01/01 09:08:29;;;;;;;1.60;0.68;;;7.80;99.90;;;;;;4957399;28;20034;-76
2024/01/01 09:10:54;;;;;;;2.97;0.65;;;7.80;99.90;;;;;;4974968;28;20113;-76
2024/01/01 09:13:20;;;;;;;3.83;0.40;;;7.80;99.90;;;;;;4974868;28;20026;-76
2024/01/01 09:15:46;;;;;;;6.45;0.73;;;7.80;99.90;;;;;;4957776;28;20180;-76
2024/01/01 09:18:11;;;;;;;1.80;0.50;;;7.80;99.90;;;;;;4974612;28;20035;-76
2024/01/01 09:20:38;;;;;;;3.63;0.60;;;7.80;99.90;;;;;;4974935;28;20085;-76
2024/01/01 09:23:04;;;;;;;4.00;0.82;;;7.80;99.90;;;;;;4957365;28;20022;-76
2024/01/01 09:25:30;;;;;;;5.93;0.90;;;7.80;99.90;;;;;;4957620;28;20225;-76
2024/01/01 09:27:56;;;;;;;1.73;0.35;;;7.90;99.90;;;;;;4957454;28;20488;-75
2024/01/01 09:30:21;;;;;;;1.85;0.40;;;7.90;99.90;;;;;;4957041;28;20041;-78
2024/01/01 09:32:47;;;;;;;2.85;0.65;;;7.90;99.90;;;;;;4974859;28;20487;-76
2024/01/01 09:35:12;;;;;;;3.40;0.52;;;7.90;99.90;;;;;;4974377;28;20073;-76
2024/01/01 09:37:38;;;;;;;4.72;0.77;;;8.00;99.90;;;;;;4957167;28;20123;-75
2024/01/01 09:40:05;;;;;;;0.98;0.50;;;8.10;99.90;;;;;;4956753;28;20035;-76
2024/01/01 09:42:31;;;;;;;2.30;0.63;;;8.10;99.90;;;;;;4974568;28;20034;-75
2024/01/01 09:44:56;;;;;;;4.07;0.57;;;8.10;99.90;;;;;;4973310;28;20384;-76
2024/01/01 09:47:22;;;;;;;5.70;0.60;;;8.10;99.90;;;;;;4972820;28;20050;-76
2024/01/01 09:49:48;;;;;;;5.05;0.70;;;8.20;99.90;;;;;;4957023;28;20030;-76
2024/01/01 09:52:14;;;;;;;4.40;0.60;;;8.20;99.90;;;;;;4956745;28;20031;-75
2024/01/01 09:54:40;;;;;;;3.33;0.70;;;8.30;99.90;;;;;;4957044;28;20041;-75
2024/01/01 09:57:06;;;;;;;3.17;0.80;;;8.30;99.90;;;;;;4956624;28;20038;-76
2024/01/01 09:59:39;;;;;;;1.42;0.50;;;8.30;99.90;;;;;;4956993;28;20039;-75
2024/01/01 10:02:06;;;;;;;2.75;0.70;;;8.30;99.90;;;;;;4972754;28;20034;-76
2024/01/01 10:04:34;;;;;;;3.75;0.70;;;8.30;99.90;;;;;;4957052;28;20058;-76
2024/01/01 10:07:00;;;;;;;4.95;0.82;;;8.30;99.90;;;;;;4973963;28;20114;-91
2024/01/01 10:09:27;;;;;;;3.63;0.75;;;8.30;99.90;;;;;;4974151;28;20057;-76
2024/01/01 10:12:04;;;;;;;5.03;0.70;;;8.30;99.90;;;;;;4956932;28;20031;-76
2024/01/01 10:14:30;;;;;;;4.68;0.93;;;8.40;99.90;;;;;;4957075;28;20118;-75
2024/01/01 10:17:13;;;;;;;4.28;0.73;;;8.40;99.90;;;;;;4974328;28;20464;-76
2024/01/01 10:19:49;;;;;;;3.03;0.85;;;8.40;99.90;;;;;;4956913;28;20034;-76
2024/01/01 10:22:18;;;;;;;4.07;0.93;;;8.40;99.90;;;;;;4956279;28;20026;-76
2024/01/01 10:24:47;;;;;;;3.70;0.70;;;8.40;99.90;;;;;;4956746;28;20038;-75
2024/01/01 10:27:17;;;;;;;5.40;1.10;;;8.50;99.90;;;;;;4956338;28;20026;-75
2024/01/01 10:29:46;;;;;;;4.47;0.90;;;8.50;99.90;;;;;;4956675;28;20034;-76
2024/01/01 10:32:15;;;;;;;4.25;0.80;;;8.60;99.90;;;;;;4956240;28;20035;-76
2024/01/01 10:34:42;;;;;;;6.25;0.90;;;8.60;99.90;;;;;;4974060;28;20059;-75
2024/01/01 10:37:08;;;;;;;4.10;0.70;;;8.60;99.90;;;;;;4955982;28;20050;-75
2024/01/01 10:39:36;;;;;;;5.45;0.90;;;8.70;99.90;;;;;;4973589;28;20113;-76
2024/01/01 10:42:02;;;;;;;2.42;0.60;;;8.80;99.90;;;;;;4973805;28;20379;-88
2024/01/01 10:44:29;;;;;;;3.65;0.73;;;8.80;99.90;;;;;;4956570;28;20038;-75
2024/01/01 10:46:56;;;;;;;2.83;0.68;;;8.90;99.90;;;;;;4973963;28;20082;-76
2024/01/01 10:49:29;;;;;;;6.15;0.70;;;8.80;99.90;;;;;;4956120;28;20185;-76
2024/01/01 10:52:35;;;;;;;3.85;0.95;;;8.80;99.90;;;;;;4956250;28;20034;-76
2024/01/01 10:55:22;;;;;;;2.78;0.60;;;8.80;99.90;;;;;;4956573;28;20045;-75
2024/01/01 10:57:59;;;;;;;4.45;0.80;;;8.80;99.90;;;;;;4956280;28;20114;-75
2024/01/01 11:00:38;;;;;;;4.80;1.10;;;8.70;99.90;;;;;;4976487;28;20066;-75
2024/01/01 11:03:05;;;;;;;7.22;0.90;;;8.70;99.90;;;;;;4976816;28;20045;-76
2024/01/01 11:05:33;;;;;;;5.63;1.30;;;8.70;99.90;;;;;;4960153;28;20101;-75
2024/01/01 11:08:00;;;;;;;3.28;0.80;;;8.80;99.90;;;;;;4959978;28;20141;-76
2024/01/01 11:10:42;;;;;;;2.08;0.90;;;8.80;99.90;;;;;;4976951;28;20495;-76
2024/01/01 11:13:26;;;;;;;8.40;1.10;;;8.90;99.90;;;;;;4959668;28;20023;-76
2024/01/01 11:15:59;;;;;;;4.90;0.73;;;8.90;99.90;;;;;;4977076;28;20026;-75
2024/01/01 11:18:32;;;;;;;5.93;1.30;;;9.00;99.90;;;;;;4976573;28;20062;-75
2024/01/01 11:21:00;;;;;;;2.58;0.70;;;9.00;99.90;;;;;;4977123;28;20451;-75
2024/01/01 11:23:48;;;;;;;2.90;0.68;;;9.10;99.90;;;;;;4976699;28;20034;-76
2024/01/01 11:26:23;;;;;;;5.45;0.65;;;9.20;99.90;;;;;;4975538;28;20033;-76
2024/01/01 11:28:53;;;;;;;3.63;0.90;;;9.10;99.90;;;;;;4959445;28;20053;-75
2024/01/01 11:31:18;;;;;;;6.25;0.75;;;9.10;99.90;;;;;;4959249;28;20035;-76
2024/01/01 11:33:44;;;;;;;5.32;0.80;;;9.10;99.90;;;;;;4976722;28;20081;-75
2024/01/01 11:36:10;;;;;;;2.80;1.10;;;9.10;99.90;;;;;;4959203;28;20058;-76
2024/01/01 11:38:39;;;;;;;6.38;1.20;;;9.00;99.90;;;;;;4976959;28;20043;-75
2024/01/01 11:41:05;;;;;;;2.90;0.80;;;8.90;99.90;;;;;;4976747;28;20472;-75
2024/01/01 11:43:32;;;;;;;4.35;0.90;;;8.90;99.90;;;;;;4975603;28;20415;-75
2024/01/01 11:45:58;;;;;;;6.93;0.80;;;8.90;99.90;;;;;;4959386;28;20503;-75
2024/01/01 11:48:24;;;;;;;7.55;1.13;;;8.90;99.90;;;;;;4975985;28;20030;-75
2024/01/01 11:50:53;;;;;;;5.45;1.00;;;8.90;99.90;;;;;;4959424;28;20117;-75
2024/01/01 11:53:19;;;;;;;4.32;0.85;;;8.90;99.90;;;;;;4958795;28;20027;-75
2024/01/01 11:55:44;;;;;;;7.50;1.00;;;9.00;99.90;;;;;;4959132;28;20030;-75
2024/01/01 11:58:11;;;;;;;6.03;0.95;;;9.00;99.90;;;;;;4958757;28;20081;-76
2024/01/01 12:00:37;;;;;;;3.67;0.88;;;9.00;99.90;;;;;;4958981;28;20496;-75
2024/01/01 12:03:04;;;;;;;6.97;1.00;;;9.00;99.90;;;;;;4959026;28;20031;-75
2024/01/01 12:05:30;;;;;;;7.18;1.10;;;9.00;99.90;;;;;;4958682;28;20109;-75
2024/01/01 12:07:56;;;;;;;3.28;1.00;;;9.00;99.90;;;;;;4958999;28;20500;-75
2024/01/01 12:10:24;;;;;;;4.40;1.13;;;9.10;99.90;;;;;;4974545;28;20035;-75
2024/01/01 12:12:59;;;;;;;6.82;0.80;;;9.10;99.90;;;;;;4975231;28;20031;-75
2024/01/01 12:15:30;;;;;;;2.97;0.90;;;9.20;99.90;;;;;;4958365;28;20042;-75
2024/01/01 12:17:56;;;;;;;3.07;1.00;;;9.20;99.90;;;;;;4976227;28;20057;-75
2024/01/01 12:20:25;;;;;;;3.65;0.93;;;9.20;99.90;;;;;;4975530;28;20078;-76
2024/01/01 12:23:11;;;;;;;5.05;0.80;;;9.20;99.90;;;;;;4976249;28;20345;-75
2024/01/01 12:25:36;;;;;;;3.33;0.88;;;9.20;99.90;;;;;;4976023;28;20035;-75
2024/01/01 12:28:03;;;;;;;3.33;0.98;;;9.20;99.90;;;;;;4975848;28;20523;-75
2024/01/01 12:30:30;;;;;;;4.40;0.88;;;9.20;99.90;;;;;;4957991;28;20477;-75
2024/01/01 12:32:58;;;;;;;5.72;1.08;;;9.20;99.90;;;;;;4975845;28;20078;-75
2024/01/01 12:35:24;;;;;;;11.52;2.00;;;9.30;99.90;;;;;;4975690;28;20099;-76
2024/01/01 12:37:51;;;;;;;6.65;1.02;;;9.30;99.90;;;;;;4975393;28;20081;-75
2024/01/01 12:40:17;;;;;;;10.48;1.45;;;9.30;99.90;;;;;;4975252;28;20035;-76
2024/01/01 12:42:43;;;;;;;9.20;1.08;;;9.30;99.90;;;;;;4975912;28;20034;-75
2024/01/01 12:45:09;;;;;;;3.35;1.00;;;9.30;99.90;;;;;;4957960;28;20023;-91
2024/01/01 12:47:35;;;;;;;4.53;1.00;;;9.30;99.90;;;;;;4958276;28;20495;-76
2024/01/01 12:50:01;;;;;;;4.60;1.20;;;9.30;99.90;;;;;;4958250;28;20031;-75
2024/01/01 12:52:26;;;;;;;9.10;1.40;;;9.30;99.90;;;;;;4975057;28;20034;-75